Oslo Bulk 1 — 9V8766 — position and weather

sailwx.info

Track history (hours):
 
Tides and Currents Weather Stations Pressure Air Temp Water Temp Dewpoint Dewpoint Depression Visibility Wind Speed Wind Dir Waves Ship Positions

Oslo Bulk 1

Last reported at 2016-Dec-04 18:20 UTC. Time now 2016-Dec-07 10:36 UTC.
Position S 24°10' E 152°58'.

Length 108 m; draft 6.4 m.

Type: Ship. MMSI: 564010000.

Date/timePositionNaut miles runAvg speedWind from/ knotsBaromVisibWave heightAir tempDewpointWater temp
2016-Dec-04 18:20S 24°10' E 152°58'10 9.9
2016-Dec-04 17:20S 24°15' E 153°08'9 9.8
2016-Dec-04 16:25S 24°19' E 153°16'8 9.5
2016-Dec-04 15:33S 24°24' E 153°24'10 9.8
2016-Dec-04 14:33S 24°29' E 153°33'127 9.0
2016-Dec-04 00:25S 26°35' E 153°42'21 9.6
2016-Dec-03 22:16S 26°56' E 153°44'710.2
2016-Dec-03 21:33S 27°03' E 153°44'1410.2
2016-Dec-03 20:14S 27°17' E 153°45'2210.4
2016-Dec-03 18:04S 27°39' E 153°46'610.2
2016-Dec-03 17:31S 27°45' E 153°47'9 9.8
2016-Dec-03 16:33S 27°54' E 153°48'1110.0
2016-Dec-03 15:30S 28°05' E 153°48'9 9.9
2016-Dec-03 14:33S 28°14' E 153°49'13 9.8
2016-Dec-03 13:16S 28°27' E 153°49'15 8.8
2016-Dec-03 11:33S 28°42' E 153°49'51 8.4
2016-Dec-03 05:32S 29°31' E 153°37'179 8.1
2016-Dec-02 07:33S 32°25' E 152°46'9 9.4
2016-Dec-02 06:33S 32°34' E 152°42'9 9.2
2016-Dec-02 05:33S 32°42' E 152°38'9 9.1
2016-Dec-02 04:33S 32°50' E 152°33'9 8.9
2016-Dec-02 03:33S 32°59' E 152°29'9 8.6
2016-Dec-02 02:33S 33°07' E 152°25'8 8.4
2016-Dec-02 01:33S 33°15' E 152°21'17 8.5
2016-Dec-01 23:33S 33°31' E 152°15'10 8.2
2016-Dec-01 22:24S 33°39' E 152°09'8 8.4
2016-Dec-01 21:26S 33°46' E 152°05'7 8.0
2016-Dec-01 20:33S 33°53' E 152°02'8 8.1
2016-Dec-01 19:33S 34°00' E 151°59'9 8.7
2016-Dec-01 18:33S 34°08' E 151°54'10 9.8
2016-Dec-01 17:33S 34°17' E 151°49'1010.4
2016-Dec-01 16:33S 34°27' E 151°45'1010.3
2016-Dec-01 15:33S 34°36' E 151°40'1110.6
2016-Dec-01 14:33S 34°46' E 151°36'1211.0
2016-Dec-01 13:30S 34°57' E 151°30'116 8.9
2016-Dec-01 00:32S 36°43' E 150°35'9 9.0
2016-Nov-30 23:33S 36°52' E 150°31'9 9.4
2016-Nov-30 22:33S 37°00' E 150°27'10 9.7
2016-Nov-30 21:32S 37°09' E 150°21'4110.2
2016-Nov-30 17:33S 37°46' E 149°58'1010.2
2016-Nov-30 16:33S 37°53' E 149°48'1010.6
2016-Nov-30 15:33S 37°59' E 149°38'1010.3
2016-Nov-30 14:33S 38°05' E 149°27'1010.2
2016-Nov-30 13:33S 38°11' E 149°17'10 9.9
2016-Nov-30 12:33S 38°17' E 149°07'11 8.9
2016-Nov-30 11:21S 38°23' E 148°56'7 8.6
2016-Nov-30 10:33S 38°27' E 148°49'18 8.4
2016-Nov-30 08:26S 38°38' E 148°30'8 8.4
2016-Nov-30 07:29S 38°43' E 148°22'  
Track history (hours):
 
Tides and Currents Weather Stations Pressure Air Temp Water Temp Dewpoint Dewpoint Depression Visibility Wind Speed Wind Dir Waves Ship Positions

Oslo Bulk 1

Last reported at 2016-Dec-04 18:20 UTC. Time now 2016-Dec-07 10:36 UTC.
Position S 24°10' E 152°58'.

Length 108 m; draft 6.4 m.

Type: Ship. MMSI: 564010000.

Date/timePositionNaut miles runAvg speedWind from/ knotsBaromVisibWave heightAir tempDewpointWater temp
2016-Dec-04 18:20S 24°10' E 152°58'10 9.9
2016-Dec-04 17:20S 24°15' E 153°08'9 9.8
2016-Dec-04 16:25S 24°19' E 153°16'8 9.5
2016-Dec-04 15:33S 24°24' E 153°24'10 9.8
2016-Dec-04 14:33S 24°29' E 153°33'127 9.0
2016-Dec-04 00:25S 26°35' E 153°42'21 9.6
2016-Dec-03 22:16S 26°56' E 153°44'710.2
2016-Dec-03 21:33S 27°03' E 153°44'1410.2
2016-Dec-03 20:14S 27°17' E 153°45'2210.4
2016-Dec-03 18:04S 27°39' E 153°46'610.2
2016-Dec-03 17:31S 27°45' E 153°47'9 9.8
2016-Dec-03 16:33S 27°54' E 153°48'1110.0
2016-Dec-03 15:30S 28°05' E 153°48'9 9.9
2016-Dec-03 14:33S 28°14' E 153°49'13 9.8
2016-Dec-03 13:16S 28°27' E 153°49'15 8.8
2016-Dec-03 11:33S 28°42' E 153°49'51 8.4
2016-Dec-03 05:32S 29°31' E 153°37'179 8.1
2016-Dec-02 07:33S 32°25' E 152°46'9 9.4
2016-Dec-02 06:33S 32°34' E 152°42'9 9.2
2016-Dec-02 05:33S 32°42' E 152°38'9 9.1
2016-Dec-02 04:33S 32°50' E 152°33'9 8.9
2016-Dec-02 03:33S 32°59' E 152°29'9 8.6
2016-Dec-02 02:33S 33°07' E 152°25'8 8.4
2016-Dec-02 01:33S 33°15' E 152°21'17 8.5
2016-Dec-01 23:33S 33°31' E 152°15'10 8.2
2016-Dec-01 22:24S 33°39' E 152°09'8 8.4
2016-Dec-01 21:26S 33°46' E 152°05'7 8.0
2016-Dec-01 20:33S 33°53' E 152°02'8 8.1
2016-Dec-01 19:33S 34°00' E 151°59'9 8.7
2016-Dec-01 18:33S 34°08' E 151°54'10 9.8
2016-Dec-01 17:33S 34°17' E 151°49'1010.4
2016-Dec-01 16:33S 34°27' E 151°45'1010.3
2016-Dec-01 15:33S 34°36' E 151°40'1110.6
2016-Dec-01 14:33S 34°46' E 151°36'1211.0
2016-Dec-01 13:30S 34°57' E 151°30'116 8.9
2016-Dec-01 00:32S 36°43' E 150°35'9 9.0
2016-Nov-30 23:33S 36°52' E 150°31'9 9.4
2016-Nov-30 22:33S 37°00' E 150°27'10 9.7
2016-Nov-30 21:32S 37°09' E 150°21'4110.2
2016-Nov-30 17:33S 37°46' E 149°58'1010.2
2016-Nov-30 16:33S 37°53' E 149°48'1010.6
2016-Nov-30 15:33S 37°59' E 149°38'1010.3
2016-Nov-30 14:33S 38°05' E 149°27'1010.2
2016-Nov-30 13:33S 38°11' E 149°17'10 9.9
2016-Nov-30 12:33S 38°17' E 149°07'11 8.9
2016-Nov-30 11:21S 38°23' E 148°56'7 8.6
2016-Nov-30 10:33S 38°27' E 148°49'18 8.4
2016-Nov-30 08:26S 38°38' E 148°30'8 8.4
2016-Nov-30 07:29S 38°43' E 148°22'  

Dump ship's entire track history